Time;durP1;ratioP1;P1;durP2;ratioP2;P2;SDS_P1;SDS_P2;PMS_P1;PMS_P2;Temp;Humidity;BMP_temperature;BMP_pressure;BME280_temperature;BME280_humidity;BME280_pressure;Samples;Min_cycle;Max_cycle;Signal;HPM_P1;HPM_P2
2022/01/01 00:00:36;;;;;;;105.32;59.85;;;;;;;;;;5096832;28;20028;-70
2022/01/01 00:03:02;;;;;;;96.60;54.97;;;;;;;;;;5096378;28;20021;-70
2022/01/01 00:05:28;;;;;;;142.38;76.53;;;;;;;;;;5096716;28;20384;-70
2022/01/01 00:07:55;;;;;;;137.05;80.13;;;;;;;;;;5096707;28;20103;-69
2022/01/01 00:10:21;;;;;;;96.60;56.25;;;;;;;;;;5094949;28;20032;-70
2022/01/01 00:12:48;;;;;;;86.97;51.20;;;;;;;;;;5096303;28;20020;-69
2022/01/01 00:15:14;;;;;;;89.00;51.92;;;;;;;;;;5096730;28;20054;-69
2022/01/01 00:17:41;;;;;;;102.32;59.17;;;;;;;;;;5096113;28;20373;-69
2022/01/01 00:20:09;;;;;;;93.00;55.80;;;;;;;;;;5096266;28;20392;-69
2022/01/01 00:22:36;;;;;;;106.78;66.00;;;;;;;;;;5096058;28;20103;-69
2022/01/01 00:25:03;;;;;;;123.30;69.68;;;;;;;;;;5096337;28;20035;-69
2022/01/01 00:27:29;;;;;;;136.95;78.85;;;;;;;;;;5096612;28;20050;-70
2022/01/01 00:29:55;;;;;;;157.95;85.95;;;;;;;;;;5095867;28;20074;-70
2022/01/01 00:32:21;;;;;;;131.13;75.10;;;;;;;;;;5096346;28;20028;-70
2022/01/01 00:34:50;;;;;;;145.38;84.00;;;;;;;;;;5096123;28;20415;-71
2022/01/01 00:37:16;;;;;;;157.20;86.43;;;;;;;;;;5096073;28;20107;-70
2022/01/01 00:39:42;;;;;;;128.27;76.05;;;;;;;;;;5094798;28;20028;-70
2022/01/01 00:42:09;;;;;;;136.10;75.07;;;;;;;;;;5096661;28;20028;-69
2022/01/01 00:44:35;;;;;;;137.63;79.72;;;;;;;;;;5094376;28;20028;-69
2022/01/01 00:47:02;;;;;;;121.03;71.47;;;;;;;;;;5095490;28;20028;-69
2022/01/01 00:49:28;;;;;;;155.13;84.32;;;;;;;;;;5095956;28;20057;-69
2022/01/01 00:51:55;;;;;;;146.05;83.15;;;;;;;;;;5094141;28;20024;-70
2022/01/01 00:54:21;;;;;;;149.40;83.60;;;;;;;;;;5096050;28;20040;-72
2022/01/01 00:56:48;;;;;;;104.05;61.00;;;;;;;;;;5095826;28;20502;-70
2022/01/01 00:59:15;;;;;;;105.22;57.78;;;;;;;;;;5095356;28;20454;-70
2022/01/01 01:01:41;;;;;;;81.82;50.35;;;;;;;;;;5095935;28;20023;-70
2022/01/01 01:04:07;;;;;;;69.65;39.80;;;;;;;;;;5096138;28;20419;-70
2022/01/01 01:06:33;;;;;;;59.78;35.30;;;;;;;;;;5095250;28;20095;-70
2022/01/01 01:09:00;;;;;;;53.72;32.78;;;;;;;;;;5095563;28;20028;-70
2022/01/01 01:11:28;;;;;;;50.10;29.48;;;;;;;;;;5095548;28;20017;-70
2022/01/01 01:14:07;;;;;;;40.45;25.05;;;;;;;;;;5093494;28;20486;-69
2022/01/01 01:16:33;;;;;;;36.90;24.15;;;;;;;;;;5095757;28;20020;-70
2022/01/01 01:18:59;;;;;;;46.80;28.55;;;;;;;;;;5094947;28;20044;-69
2022/01/01 01:21:27;;;;;;;45.60;27.33;;;;;;;;;;5095344;28;20103;-68
2022/01/01 01:23:54;;;;;;;62.88;38.15;;;;;;;;;;5095198;28;20391;-70
2022/01/01 01:26:22;;;;;;;87.38;47.42;;;;;;;;;;5094864;28;20100;-70
2022/01/01 01:28:50;;;;;;;87.60;47.83;;;;;;;;;;5095491;28;20020;-70
2022/01/01 01:31:17;;;;;;;63.97;37.08;;;;;;;;;;5095228;28;20020;-70
2022/01/01 01:33:44;;;;;;;67.50;39.97;;;;;;;;;;5093377;28;20484;-70
2022/01/01 01:36:11;;;;;;;63.75;36.45;;;;;;;;;;5093835;28;20031;-70
2022/01/01 01:38:37;;;;;;;63.28;39.92;;;;;;;;;;5094974;28;20028;-70
2022/01/01 01:41:05;;;;;;;61.90;37.53;;;;;;;;;;5094638;28;20020;-70
2022/01/01 01:43:32;;;;;;;66.75;35.17;;;;;;;;;;5093573;28;20385;-70
2022/01/01 01:46:03;;;;;;;58.65;32.00;;;;;;;;;;5094851;28;20016;-70
2022/01/01 01:48:29;;;;;;;80.80;39.95;;;;;;;;;;5094624;28;20016;-70
2022/01/01 01:50:56;;;;;;;83.47;46.65;;;;;;;;;;5094670;28;20059;-70
2022/01/01 01:53:23;;;;;;;91.10;45.83;;;;;;;;;;5093364;28;20101;-70
2022/01/01 01:55:49;;;;;;;88.75;47.00;;;;;;;;;;5094258;28;20107;-70
2022/01/01 01:58:16;;;;;;;87.32;47.85;;;;;;;;;;5093768;28;20020;-70
2022/01/01 02:01:17;;;;;;;75.70;40.20;;;;;;;;;;5094539;28;20028;-70
2022/01/01 02:03:38;;;;;;;61.33;34.63;;;;;;;;;;5094318;28;20111;-69
2022/01/01 02:06:07;;;;;;;61.10;35.38;;;;;;;;;;5094427;28;20421;-70
2022/01/01 02:08:34;;;;;;;84.40;46.00;;;;;;;;;;5094030;28;20602;-70
2022/01/01 02:11:00;;;;;;;62.20;39.03;;;;;;;;;;5094440;28;20020;-70
2022/01/01 02:13:33;;;;;;;52.35;32.33;;;;;;;;;;5094348;28;20476;-70
2022/01/01 02:16:27;;;;;;;54.30;28.83;;;;;;;;;;5093941;28;20024;-71
2022/01/01 02:18:45;;;;;;;72.88;36.67;;;;;;;;;;5094107;28;20081;-70
2022/01/01 02:21:12;;;;;;;66.65;36.05;;;;;;;;;;5094155;28;20019;-70
2022/01/01 02:23:42;;;;;;;71.75;32.35;;;;;;;;;;5093923;28;20110;-70
2022/01/01 02:26:15;;;;;;;72.25;33.60;;;;;;;;;;5092763;28;20031;-70
2022/01/01 02:28:48;;;;;;;58.70;32.25;;;;;;;;;;5094231;28;20350;-71
2022/01/01 02:31:14;;;;;;;;;;;;;;;;;;5094136;28;20024;-70
2022/01/01 02:33:42;;;;;;;45.15;24.70;;;;;;;;;;5092640;28;19954;-70
2022/01/01 02:36:08;;;;;;;43.45;25.35;;;;;;;;;;5093543;28;20380;-70
2022/01/01 02:38:35;;;;;;;45.20;24.52;;;;;;;;;;5093911;28;20016;-70
2022/01/01 02:41:01;;;;;;;57.63;28.88;;;;;;;;;;5094029;28;20026;-70
2022/01/01 02:43:27;;;;;;;46.03;24.80;;;;;;;;;;5093342;28;20081;-70
2022/01/01 02:45:54;;;;;;;42.25;25.08;;;;;;;;;;5093670;28;20499;-70
2022/01/01 02:48:20;;;;;;;44.38;25.88;;;;;;;;;;5093725;28;20020;-70
2022/01/01 02:50:47;;;;;;;41.40;24.60;;;;;;;;;;5093415;28;20484;-70
2022/01/01 02:53:14;;;;;;;52.38;30.70;;;;;;;;;;5093716;28;20127;-70
2022/01/01 02:55:40;;;;;;;45.72;25.80;;;;;;;;;;5093396;28;20035;-70
2022/01/01 02:58:07;;;;;;;54.72;28.92;;;;;;;;;;5093179;28;20033;-70
2022/01/01 03:00:33;;;;;;;53.22;27.27;;;;;;;;;;5093604;28;20030;-69
2022/01/01 03:03:00;;;;;;;46.85;26.50;;;;;;;;;;5093538;28;20026;-70
2022/01/01 03:05:27;;;;;;;42.28;22.40;;;;;;;;;;5093044;28;20049;-70
2022/01/01 03:07:53;;;;;;;40.60;21.02;;;;;;;;;;5093663;28;20051;-70
2022/01/01 03:10:19;;;;;;;43.90;25.27;;;;;;;;;;5093296;28;20435;-70
2022/01/01 03:12:45;;;;;;;43.47;22.95;;;;;;;;;;5092769;28;20024;-70
2022/01/01 03:15:12;;;;;;;36.35;19.90;;;;;;;;;;5093389;28;20435;-70
2022/01/01 03:17:38;;;;;;;35.08;19.95;;;;;;;;;;5093408;28;20020;-70
2022/01/01 03:20:05;;;;;;;38.63;20.60;;;;;;;;;;5093055;28;20383;-70
2022/01/01 03:22:31;;;;;;;43.00;26.58;;;;;;;;;;5093771;28;20373;-70
2022/01/01 03:24:57;;;;;;;38.28;22.65;;;;;;;;;;5091888;28;20024;-70
2022/01/01 03:27:23;;;;;;;32.97;21.88;;;;;;;;;;5091560;28;20480;-70
2022/01/01 03:29:49;;;;;;;36.53;18.70;;;;;;;;;;5093264;28;20024;-70
2022/01/01 03:32:16;;;;;;;27.73;18.08;;;;;;;;;;5093312;28;20024;-69
2022/01/01 03:34:42;;;;;;;37.30;22.95;;;;;;;;;;5092740;28;20028;-70
2022/01/01 03:37:09;;;;;;;43.58;24.85;;;;;;;;;;5093210;28;20034;-69
2022/01/01 03:39:35;;;;;;;51.05;27.23;;;;;;;;;;5092724;28;20028;-69
2022/01/01 03:42:02;;;;;;;60.03;31.80;;;;;;;;;;5093081;28;20038;-69
2022/01/01 03:44:28;;;;;;;49.70;28.38;;;;;;;;;;5093132;28;20016;-70
2022/01/01 03:47:02;;;;;;;53.53;30.63;;;;;;;;;;5091402;28;20024;-70
2022/01/01 03:49:28;;;;;;;51.17;29.70;;;;;;;;;;5091818;28;20484;-70
2022/01/01 03:51:55;;;;;;;57.03;32.90;;;;;;;;;;5091805;28;20082;-70
2022/01/01 03:54:21;;;;;;;54.13;32.30;;;;;;;;;;5092463;28;20077;-70
2022/01/01 03:56:47;;;;;;;60.20;32.65;;;;;;;;;;5093098;28;20069;-70
2022/01/01 03:59:14;;;;;;;61.13;34.88;;;;;;;;;;5092844;28;20473;-70
2022/01/01 04:01:40;;;;;;;49.53;29.20;;;;;;;;;;5092601;28;20028;-69
2022/01/01 04:04:06;;;;;;;41.25;23.17;;;;;;;;;;5093064;28;20099;-70
2022/01/01 04:06:32;;;;;;;46.75;25.27;;;;;;;;;;5092893;28;20035;-70
2022/01/01 04:08:58;;;;;;;45.20;26.40;;;;;;;;;;5092519;28;20024;-70
2022/01/01 04:11:24;;;;;;;79.30;44.20;;;;;;;;;;5091587;28;20048;-70
2022/01/01 04:13:51;;;;;;;50.45;27.40;;;;;;;;;;5092555;28;20516;-70
2022/01/01 04:16:18;;;;;;;38.10;22.40;;;;;;;;;;5091213;28;20031;-70
2022/01/01 04:18:45;;;;;;;30.42;19.27;;;;;;;;;;5091404;28;20035;-69
2022/01/01 04:21:12;;;;;;;34.35;17.83;;;;;;;;;;5093772;28;20057;-70
2022/01/01 04:23:39;;;;;;;29.27;17.92;;;;;;;;;;5096089;28;20024;-70
2022/01/01 04:26:07;;;;;;;32.58;16.42;;;;;;;;;;5096526;28;20099;-70
2022/01/01 04:28:34;;;;;;;32.47;16.80;;;;;;;;;;5096546;28;20043;-70
2022/01/01 04:31:00;;;;;;;35.80;17.23;;;;;;;;;;5096129;28;20039;-70
2022/01/01 04:33:26;;;;;;;33.80;18.38;;;;;;;;;;5096241;28;20024;-70
2022/01/01 04:35:52;;;;;;;35.38;19.95;;;;;;;;;;5095807;28;20392;-70
2022/01/01 04:38:35;;;;;;;43.10;22.10;;;;;;;;;;5096154;28;20028;-70
2022/01/01 04:41:02;;;;;;;30.70;17.65;;;;;;;;;;5094900;28;20028;-70
2022/01/01 04:43:28;;;;;;;36.67;20.55;;;;;;;;;;5095674;28;20016;-70
2022/01/01 04:45:54;;;;;;;45.90;22.70;;;;;;;;;;5094721;28;20024;-71
2022/01/01 04:48:20;;;;;;;44.72;21.20;;;;;;;;;;5095994;28;20427;-70
2022/01/01 04:50:46;;;;;;;49.20;27.50;;;;;;;;;;5094261;28;20032;-70
2022/01/01 04:53:16;;;;;;;50.65;27.67;;;;;;;;;;5095796;28;20020;-70
2022/01/01 04:55:42;;;;;;;44.17;27.35;;;;;;;;;;5096044;28;20028;-70
2022/01/01 04:58:09;;;;;;;47.40;24.73;;;;;;;;;;5095591;28;20377;-70
2022/01/01 05:00:35;;;;;;;43.75;24.35;;;;;;;;;;5095486;28;20044;-70
2022/01/01 05:03:01;;;;;;;40.60;23.98;;;;;;;;;;5095559;28;20020;-69
2022/01/01 05:05:27;;;;;;;50.65;24.98;;;;;;;;;;5095238;28;20016;-69
2022/01/01 05:07:53;;;;;;;39.45;21.92;;;;;;;;;;5095572;28;20032;-70
2022/01/01 05:10:20;;;;;;;42.83;24.95;;;;;;;;;;5096171;28;20338;-70
2022/01/01 05:12:46;;;;;;;36.13;21.42;;;;;;;;;;5094875;28;20028;-69
2022/01/01 05:15:12;;;;;;;35.40;21.27;;;;;;;;;;5095374;28;20032;-70
2022/01/01 05:17:39;;;;;;;44.08;23.55;;;;;;;;;;5095435;28;20055;-70
2022/01/01 05:20:05;;;;;;;56.35;28.95;;;;;;;;;;5094873;28;20020;-70
2022/01/01 05:22:31;;;;;;;67.47;34.20;;;;;;;;;;5095318;28;20091;-69
2022/01/01 05:25:00;;;;;;;59.88;33.10;;;;;;;;;;5094896;28;20472;-70
2022/01/01 05:27:31;;;;;;;66.57;33.55;;;;;;;;;;5095202;28;20061;-70
2022/01/01 05:29:57;;;;;;;55.10;29.30;;;;;;;;;;5095272;28;20024;-70
2022/01/01 05:32:24;;;;;;;56.60;28.23;;;;;;;;;;5094660;28;20523;-70
2022/01/01 05:34:50;;;;;;;54.10;30.75;;;;;;;;;;5093642;28;20071;-70
2022/01/01 05:37:16;;;;;;;49.10;27.17;;;;;;;;;;5095050;28;20028;-70
2022/01/01 05:39:42;;;;;;;50.58;29.88;;;;;;;;;;5094616;28;20059;-70
2022/01/01 05:42:09;;;;;;;54.30;28.65;;;;;;;;;;5094931;28;20512;-70
2022/01/01 05:44:35;;;;;;;51.67;27.95;;;;;;;;;;5094803;28;20035;-70
2022/01/01 05:47:01;;;;;;;61.55;31.92;;;;;;;;;;5094430;28;20035;-70
2022/01/01 05:49:27;;;;;;;61.40;29.80;;;;;;;;;;5094790;28;20028;-70
2022/01/01 05:51:54;;;;;;;76.57;41.25;;;;;;;;;;5094715;28;20020;-70
2022/01/01 05:54:20;;;;;;;72.45;38.08;;;;;;;;;;5094227;28;20043;-70
2022/01/01 05:56:46;;;;;;;75.35;37.97;;;;;;;;;;5094880;28;20583;-70
2022/01/01 05:59:12;;;;;;;63.85;33.03;;;;;;;;;;5094641;28;20032;-70
2022/01/01 06:01:38;;;;;;;64.25;33.33;;;;;;;;;;5094192;28;20095;-69
2022/01/01 06:04:05;;;;;;;59.70;30.75;;;;;;;;;;5094596;28;20028;-70
2022/01/01 06:06:31;;;;;;;55.90;30.15;;;;;;;;;;5094480;28;20346;-70
2022/01/01 06:08:57;;;;;;;50.03;28.67;;;;;;;;;;5093983;28;20052;-70
2022/01/01 06:11:23;;;;;;;38.92;21.58;;;;;;;;;;5094394;28;20492;-70
2022/01/01 06:13:49;;;;;;;46.92;27.95;;;;;;;;;;5094100;28;20048;-70
2022/01/01 06:16:16;;;;;;;56.53;29.83;;;;;;;;;;5093916;28;20507;-70
2022/01/01 06:18:42;;;;;;;63.20;33.90;;;;;;;;;;5094269;28;20103;-70
2022/01/01 06:21:08;;;;;;;54.42;30.00;;;;;;;;;;5093798;28;20379;-70
2022/01/01 06:23:37;;;;;;;59.72;31.90;;;;;;;;;;5094495;28;20073;-69
2022/01/01 06:26:04;;;;;;;50.08;28.88;;;;;;;;;;5092917;28;20077;-70
2022/01/01 06:28:30;;;;;;;58.05;32.15;;;;;;;;;;5093906;28;20028;-70
2022/01/01 06:30:56;;;;;;;61.03;33.13;;;;;;;;;;5094024;28;20044;-70
2022/01/01 06:33:23;;;;;;;63.95;35.08;;;;;;;;;;5093969;28;20028;-70
2022/01/01 06:35:49;;;;;;;58.80;32.90;;;;;;;;;;5093587;28;20430;-70
2022/01/01 06:38:16;;;;;;;98.88;47.55;;;;;;;;;;5094137;28;20021;-70
2022/01/01 06:40:43;;;;;;;94.75;52.72;;;;;;;;;;5093875;28;20476;-70
2022/01/01 06:43:11;;;;;;;122.68;54.05;;;;;;;;;;5093534;28;20029;-70
2022/01/01 06:45:37;;;;;;;127.10;58.00;;;;;;;;;;5093267;28;20031;-70
2022/01/01 06:48:03;;;;;;;117.45;56.72;;;;;;;;;;5093691;28;20027;-70
2022/01/01 06:50:30;;;;;;;128.10;61.22;;;;;;;;;;5093382;28;20016;-70
2022/01/01 06:52:56;;;;;;;97.82;49.42;;;;;;;;;;5093643;28;20469;-70
2022/01/01 06:55:22;;;;;;;93.13;47.60;;;;;;;;;;5092292;28;20036;-70
2022/01/01 06:57:48;;;;;;;86.78;46.60;;;;;;;;;;5093166;28;20345;-70
2022/01/01 07:00:15;;;;;;;114.32;55.90;;;;;;;;;;5093649;28;20077;-70
2022/01/01 07:02:44;;;;;;;94.47;52.33;;;;;;;;;;5093541;28;20019;-69
2022/01/01 07:05:11;;;;;;;91.50;49.25;;;;;;;;;;5093090;28;20020;-69
2022/01/01 07:07:37;;;;;;;100.80;52.88;;;;;;;;;;5093486;28;20085;-69
2022/01/01 07:10:07;;;;;;;102.50;50.65;;;;;;;;;;5093398;28;20052;-70
2022/01/01 07:12:34;;;;;;;95.60;49.75;;;;;;;;;;5093075;28;20034;-69
2022/01/01 07:15:00;;;;;;;64.18;37.45;;;;;;;;;;5091882;28;20101;-69
2022/01/01 07:17:26;;;;;;;64.95;36.10;;;;;;;;;;5093064;28;20146;-69
2022/01/01 07:19:52;;;;;;;60.63;33.17;;;;;;;;;;5093299;28;20032;-69
2022/01/01 07:22:19;;;;;;;123.22;54.40;;;;;;;;;;5093323;28;20036;-70
2022/01/01 07:24:46;;;;;;;118.72;61.90;;;;;;;;;;5092882;28;20024;-69
2022/01/01 07:27:12;;;;;;;94.68;51.95;;;;;;;;;;5093331;28;20028;-69
2022/01/01 07:29:39;;;;;;;78.63;44.83;;;;;;;;;;5091918;28;20020;-69
2022/01/01 07:32:06;;;;;;;73.57;40.15;;;;;;;;;;5092779;28;20039;-69
2022/01/01 07:34:32;;;;;;;68.00;41.38;;;;;;;;;;5093126;28;20055;-69
2022/01/01 07:36:58;;;;;;;68.25;38.15;;;;;;;;;;5093177;28;20024;-69
2022/01/01 07:39:24;;;;;;;57.53;34.42;;;;;;;;;;5092732;28;20028;-69
2022/01/01 07:41:50;;;;;;;62.58;38.00;;;;;;;;;;5093285;28;20047;-69
2022/01/01 07:44:17;;;;;;;64.28;37.33;;;;;;;;;;5091823;28;20035;-69
2022/01/01 07:46:43;;;;;;;72.43;39.35;;;;;;;;;;5092722;28;20044;-70
2022/01/01 07:49:09;;;;;;;50.97;29.27;;;;;;;;;;5093077;28;20056;-70
2022/01/01 07:51:35;;;;;;;49.80;29.05;;;;;;;;;;5093008;28;20027;-69
2022/01/01 07:54:01;;;;;;;51.78;31.02;;;;;;;;;;5092564;28;20020;-69
2022/01/01 07:56:28;;;;;;;45.78;31.23;;;;;;;;;;5094493;28;20024;-69
2022/01/01 07:58:54;;;;;;;44.00;25.88;;;;;;;;;;5095633;28;20020;-69
2022/01/01 08:01:20;;;;;;;43.55;25.88;;;;;;;;;;5095161;28;20388;-68
2022/01/01 08:03:49;;;;;;;45.30;26.85;;;;;;;;;;5096849;28;20028;-69
2022/01/01 08:06:16;;;;;;;51.90;31.85;;;;;;;;;;5096789;28;20012;-70
2022/01/01 08:08:42;;;;;;;43.45;27.77;;;;;;;;;;5095128;28;20115;-69
2022/01/01 08:11:09;;;;;;;50.45;28.92;;;;;;;;;;5097004;28;20042;-70
2022/01/01 08:13:36;;;;;;;38.55;21.75;;;;;;;;;;5096717;28;20047;-70
2022/01/01 08:16:03;;;;;;;40.55;26.55;;;;;;;;;;5095030;28;20057;-70
2022/01/01 08:18:32;;;;;;;44.88;26.42;;;;;;;;;;5096649;28;20031;-70
2022/01/01 08:20:58;;;;;;;58.35;34.45;;;;;;;;;;5096298;28;20020;-71
2022/01/01 08:23:24;;;;;;;56.00;33.08;;;;;;;;;;5096715;28;20024;-70
2022/01/01 08:25:50;;;;;;;53.33;33.20;;;;;;;;;;5096440;28;20056;-70
2022/01/01 08:28:16;;;;;;;50.45;30.60;;;;;;;;;;5096043;28;20085;-70
2022/01/01 08:30:43;;;;;;;51.53;31.08;;;;;;;;;;5096314;28;20546;-70
2022/01/01 08:33:09;;;;;;;57.80;37.40;;;;;;;;;;5095002;28;20028;-71
2022/01/01 08:35:35;;;;;;;57.40;36.83;;;;;;;;;;5096082;28;20119;-71
2022/01/01 08:38:04;;;;;;;65.05;38.47;;;;;;;;;;5096268;28;20034;-71
2022/01/01 08:40:31;;;;;;;84.30;47.88;;;;;;;;;;5096315;28;20028;-70
2022/01/01 08:42:57;;;;;;;79.22;46.20;;;;;;;;;;5095755;28;20035;-70
2022/01/01 08:45:23;;;;;;;60.42;37.33;;;;;;;;;;5096131;28;20035;-70
2022/01/01 08:47:50;;;;;;;55.55;32.65;;;;;;;;;;5094836;28;20032;-70
2022/01/01 08:50:16;;;;;;;48.13;31.67;;;;;;;;;;5095560;28;20027;-71
2022/01/01 08:52:43;;;;;;;64.10;36.13;;;;;;;;;;5094723;28;20387;-70
2022/01/01 08:55:10;;;;;;;61.58;39.28;;;;;;;;;;5095930;28;20036;-70
2022/01/01 08:57:36;;;;;;;89.70;53.08;;;;;;;;;;5095502;28;20032;-70
2022/01/01 09:00:04;;;;;;;85.10;55.25;;;;;;;;;;5094551;28;20434;-70
2022/01/01 09:02:31;;;;;;;95.18;55.75;;;;;;;;;;5095739;28;20016;-70
2022/01/01 09:04:57;;;;;;;107.05;61.88;;;;;;;;;;5095360;28;20028;-70
2022/01/01 09:07:28;;;;;;;112.93;69.03;;;;;;;;;;5094158;28;20095;-71
2022/01/01 09:09:58;;;;;;;113.95;66.18;;;;;;;;;;5095739;28;20055;-70
2022/01/01 09:12:25;;;;;;;87.63;53.42;;;;;;;;;;5095568;28;20021;-72
2022/01/01 09:14:51;;;;;;;91.63;57.17;;;;;;;;;;5095284;28;20055;-71
2022/01/01 09:17:17;;;;;;;76.95;48.90;;;;;;;;;;5095068;28;20547;-71
2022/01/01 09:19:44;;;;;;;60.97;34.40;;;;;;;;;;5095694;28;20359;-71
2022/01/01 09:22:10;;;;;;;47.88;30.65;;;;;;;;;;5095403;28;20021;-71
2022/01/01 09:24:36;;;;;;;45.53;30.83;;;;;;;;;;5094967;28;20384;-71
2022/01/01 09:27:03;;;;;;;47.10;26.65;;;;;;;;;;5095846;28;20091;-70
2022/01/01 09:29:29;;;;;;;45.20;28.13;;;;;;;;;;5095117;28;20024;-72
2022/01/01 09:31:55;;;;;;;40.13;26.95;;;;;;;;;;5094767;28;20016;-72
2022/01/01 09:34:22;;;;;;;43.30;27.33;;;;;;;;;;5095129;28;20120;-71
2022/01/01 09:36:50;;;;;;;38.38;22.95;;;;;;;;;;5095050;28;20020;-71
2022/01/01 09:39:16;;;;;;;36.70;23.58;;;;;;;;;;5094740;28;20418;-71
2022/01/01 09:41:43;;;;;;;34.88;22.88;;;;;;;;;;5093707;28;20095;-71
2022/01/01 09:44:16;;;;;;;32.30;22.13;;;;;;;;;;5095232;28;20024;-70
2022/01/01 09:46:44;;;;;;;34.75;22.13;;;;;;;;;;5094662;28;20020;-71
2022/01/01 09:49:11;;;;;;;34.50;22.75;;;;;;;;;;5093624;28;20035;-71
2022/01/01 09:51:37;;;;;;;39.83;27.02;;;;;;;;;;5094838;28;20107;-71
2022/01/01 09:54:03;;;;;;;36.08;22.40;;;;;;;;;;5094490;28;20423;-72
2022/01/01 09:56:29;;;;;;;43.92;24.77;;;;;;;;;;5094934;28;20091;-71
2022/01/01 10:00:15;;;;;;;38.42;25.45;;;;;;;;;;5090645;27;20951;-69
2022/01/01 10:03:41;;;;;;;37.33;24.35;;;;;;;;;;5111514;27;20454;-69
2022/01/01 10:07:32;;;;;;;36.90;23.25;;;;;;;;;;5110962;27;20408;-69
2022/01/01 10:10:16;;;;;;;49.33;31.60;;;;;;;;;;5111296;28;20032;-69
2022/01/01 10:12:43;;;;;;;52.83;33.33;;;;;;;;;;5111232;28;20380;-70
2022/01/01 10:15:11;;;;;;;48.05;30.20;;;;;;;;;;5110664;28;20024;-71
2022/01/01 10:17:38;;;;;;;43.90;30.27;;;;;;;;;;5111081;28;20065;-69
2022/01/01 10:20:04;;;;;;;46.72;28.77;;;;;;;;;;5111291;28;20030;-70
2022/01/01 10:31:08;;;;;;;81.43;51.75;;;;;;;;;;5131781;27;20122;-69
2022/01/01 10:35:07;;;;;;;94.53;58.58;;;;;;;;;;5111363;27;20408;-70
2022/01/01 10:37:59;;;;;;;66.85;42.15;;;;;;;;;;5112103;27;20388;-70
2022/01/01 10:40:26;;;;;;;57.85;33.70;;;;;;;;;;5111207;28;20023;-70
2022/01/01 10:42:52;;;;;;;44.55;29.70;;;;;;;;;;5110687;28;20028;-69
2022/01/01 10:45:32;;;;;;;36.92;23.42;;;;;;;;;;5111285;28;20020;-70
2022/01/01 10:49:30;;;;;;;16.05;9.18;;;;;;;;;;5111021;27;20393;-69
2022/01/01 10:53:12;;;;;;;14.45;8.10;;;;;;;;;;5111997;27;20711;-70
2022/01/01 10:55:42;;;;;;;13.35;6.25;;;;;;;;;;5110866;28;20024;-69
2022/01/01 10:58:08;;;;;;;9.98;5.53;;;;;;;;;;5111263;28;20027;-70
2022/01/01 11:00:39;;;;;;;17.25;8.55;;;;;;;;;;5111219;28;20047;-69
2022/01/01 11:03:08;;;;;;;12.43;6.30;;;;;;;;;;5109463;28;20591;-69
2022/01/01 11:07:25;;;;;;;15.75;7.43;;;;;;;;;;5111281;27;20404;-70
2022/01/01 11:09:51;;;;;;;12.25;6.70;;;;;;;;;;5110711;28;20500;-70
2022/01/01 11:12:20;;;;;;;12.25;5.97;;;;;;;;;;5109901;28;20443;-70
2022/01/01 11:15:59;;;;;;;11.48;5.90;;;;;;;;;;5111439;27;20393;-69
2022/01/01 11:20:53;;;;;;;8.52;4.47;;;;;;;;;;5111233;27;20401;-69
2022/01/01 11:23:41;;;;;;;12.35;5.95;;;;;;;;;;5111552;27;20384;-69
2022/01/01 11:26:09;;;;;;;10.63;4.90;;;;;;;;;;5111267;28;20027;-69
2022/01/01 11:28:36;;;;;;;14.15;6.30;;;;;;;;;;5111122;28;20024;-69
2022/01/01 11:32:59;;;;;;;10.27;5.03;;;;;;;;;;5111199;27;20457;-69
2022/01/01 11:36:42;;;;;;;17.45;9.82;;;;;;;;;;5111491;27;20396;-69
2022/01/01 11:39:13;;;;;;;14.90;8.23;;;;;;;;;;5109483;28;20027;-69
2022/01/01 11:41:40;;;;;;;16.88;9.25;;;;;;;;;;5109874;28;20123;-69
2022/01/01 11:44:25;;;;;;;10.45;5.97;;;;;;;;;;5111709;28;20055;-70
2022/01/01 11:47:00;;;;;;;11.50;6.40;;;;;;;;;;5110700;28;20030;-69
2022/01/01 11:49:27;;;;;;;10.55;5.53;;;;;;;;;;5111043;28;20028;-69
2022/01/01 11:56:08;;;;;;;10.07;5.18;;;;;;;;;;5111357;27;20400;-69
2022/01/01 11:59:03;;;;;;;15.18;5.88;;;;;;;;;;5111403;28;20463;-69
2022/01/01 12:03:54;;;;;;;9.82;5.10;;;;;;;;;;5111552;27;20396;-69
2022/01/01 12:06:20;;;;;;;8.23;4.70;;;;;;;;;;5111192;28;20024;-69
2022/01/01 12:08:48;;;;;;;10.30;5.88;;;;;;;;;;5110667;28;20024;-71
2022/01/01 12:11:30;;;;;;;7.22;4.18;;;;;;;;;;5111472;28;20020;-72
2022/01/01 12:13:57;;;;;;;10.40;5.05;;;;;;;;;;5110722;28;20024;-71
2022/01/01 12:16:23;;;;;;;10.05;5.00;;;;;;;;;;5111082;28;20024;-71
2022/01/01 12:24:59;;;;;;;15.10;8.40;;;;;;;;;;5111541;27;20396;-70
2022/01/01 12:27:26;;;;;;;20.83;10.77;;;;;;;;;;5110981;28;20365;-69
2022/01/01 12:30:04;;;;;;;17.95;10.05;;;;;;;;;;5111111;28;20028;-72
2022/01/01 12:32:37;;;;;;;20.95;11.40;;;;;;;;;;5111449;28;20034;-69
2022/01/01 12:37:36;;;;;;;17.52;9.60;;;;;;;;;;5131710;27;20443;-70
2022/01/01 12:40:04;;;;;;;18.67;11.30;;;;;;;;;;5131673;28;20073;-70
2022/01/01 12:44:33;;;;;;;15.77;9.23;;;;;;;;;;5112069;27;20403;-70
2022/01/01 12:47:01;;;;;;;18.08;10.57;;;;;;;;;;5111199;28;20028;-69
2022/01/01 12:49:27;;;;;;;32.25;17.25;;;;;;;;;;5110728;28;20023;-70
2022/01/01 12:51:56;;;;;;;20.27;11.10;;;;;;;;;;5111090;28;20433;-70
2022/01/01 12:54:23;;;;;;;19.52;12.07;;;;;;;;;;5110894;28;20065;-70
2022/01/01 12:59:00;;;;;;;15.00;8.68;;;;;;;;;;5091111;27;20739;-71
2022/01/01 13:01:36;;;;;;;12.65;6.97;;;;;;;;;;5111315;27;20397;-70
2022/01/01 13:04:29;;;;;;;13.48;6.97;;;;;;;;;;5091163;27;20886;-70
2022/01/01 13:07:00;;;;;;;16.30;9.07;;;;;;;;;;5090702;28;20127;-72
2022/01/01 13:12:38;;;;;;;19.30;10.65;;;;;;;;;;5111692;27;20431;-70
2022/01/01 13:15:05;;;;;;;16.17;8.48;;;;;;;;;;5111445;28;20430;-70
2022/01/01 13:17:31;;;;;;;21.00;10.90;;;;;;;;;;5110670;28;20020;-70
2022/01/01 13:21:21;;;;;;;18.42;8.93;;;;;;;;;;5111329;27;20123;-69
2022/01/01 13:23:47;;;;;;;17.17;9.50;;;;;;;;;;5109491;28;20125;-71
2022/01/01 13:26:14;;;;;;;11.43;6.45;;;;;;;;;;5111034;28;20426;-71
2022/01/01 13:28:40;;;;;;;16.17;7.72;;;;;;;;;;5111091;28;20016;-70
2022/01/01 13:31:07;;;;;;;15.57;8.48;;;;;;;;;;5109300;28;20023;-71
2022/01/01 13:34:53;;;;;;;14.48;9.27;;;;;;;;;;5173279;27;20593;-70
2022/01/01 13:37:23;;;;;;;18.95;10.73;;;;;;;;;;5152018;27;20026;-70
2022/01/01 13:40:37;;;;;;;25.90;12.43;;;;;;;;;;5111318;27;20449;-70
2022/01/01 13:43:19;;;;;;;23.60;12.57;;;;;;;;;;5111429;27;20388;-70
2022/01/01 13:45:45;;;;;;;26.45;14.80;;;;;;;;;;5110713;28;20484;-70
2022/01/01 13:48:12;;;;;;;21.83;11.85;;;;;;;;;;5111112;28;20384;-70
2022/01/01 13:52:22;;;;;;;26.17;16.63;;;;;;;;;;5070566;28;20402;-70
2022/01/01 13:54:53;;;;;;;21.58;13.23;;;;;;;;;;5070627;28;20063;-70
2022/01/01 13:59:01;;;;;;;26.25;16.05;;;;;;;;;;5110886;27;20762;-70
2022/01/01 14:05:51;;;;;;;19.15;11.48;;;;;;;;;;5111462;27;20396;-71
2022/01/01 14:08:17;;;;;;;18.00;11.43;;;;;;;;;;5111092;28;20077;-70
2022/01/01 14:10:52;;;;;;;18.35;10.48;;;;;;;;;;5111080;28;20024;-70
2022/01/01 14:13:30;;;;;;;22.60;13.00;;;;;;;;;;5110772;28;20029;-70
2022/01/01 14:17:50;;;;;;;22.35;8.45;;;;;;;;;;5111950;27;20397;-71
2022/01/01 14:20:20;;;;;;;15.05;9.02;;;;;;;;;;5110718;28;20039;-71
2022/01/01 14:26:52;;;;;;;23.40;11.30;;;;;;;;;;5111194;27;20113;-70
2022/01/01 14:29:22;;;;;;;22.27;14.13;;;;;;;;;;5090887;28;20108;-71
2022/01/01 14:31:48;;;;;;;20.38;10.38;;;;;;;;;;5090603;28;20047;-70
2022/01/01 14:36:12;;;;;;;16.50;9.35;;;;;;;;;;5111825;27;20745;-70
2022/01/01 14:38:52;;;;;;;19.23;9.57;;;;;;;;;;5112091;27;20385;-71
2022/01/01 14:41:19;;;;;;;18.40;9.45;;;;;;;;;;5110728;28;20031;-70
2022/01/01 14:43:45;;;;;;;17.65;10.45;;;;;;;;;;5111234;28;20027;-70
2022/01/01 14:49:52;;;;;;;18.60;11.38;;;;;;;;;;5110966;27;20397;-71
2022/01/01 14:52:37;;;;;;;22.77;14.75;;;;;;;;;;5111143;28;20411;-71
2022/01/01 14:55:14;;;;;;;27.75;16.95;;;;;;;;;;5110996;28;20054;-71
2022/01/01 14:57:42;;;;;;;24.67;15.75;;;;;;;;;;5111316;28;20035;-73
2022/01/01 15:00:10;;;;;;;23.40;14.48;;;;;;;;;;5111099;28;20484;-72
2022/01/01 15:02:37;;;;;;;21.48;14.85;;;;;;;;;;5110586;28;20419;-70
2022/01/01 15:05:04;;;;;;;25.40;14.43;;;;;;;;;;5110925;28;20027;-70
2022/01/01 15:07:31;;;;;;;20.77;13.80;;;;;;;;;;5110909;28;20050;-70
2022/01/01 15:11:13;;;;;;;24.85;13.90;;;;;;;;;;5111230;27;20419;-72
2022/01/01 15:17:40;;;;;;;32.38;18.40;;;;;;;;;;5110931;27;20404;-71
2022/01/01 15:20:08;;;;;;;29.77;18.42;;;;;;;;;;5111240;28;20028;-72
2022/01/01 15:22:34;;;;;;;22.70;14.70;;;;;;;;;;5109806;28;20024;-71
2022/01/01 15:25:02;;;;;;;23.70;13.98;;;;;;;;;;5110705;28;20495;-72
2022/01/01 15:29:03;;;;;;;25.92;16.80;;;;;;;;;;5111196;27;20392;-71
2022/01/01 15:31:38;;;;;;;23.35;13.60;;;;;;;;;;5110979;28;20030;-71
2022/01/01 15:34:10;;;;;;;23.55;15.38;;;;;;;;;;5110956;28;20020;-70
2022/01/01 15:36:44;;;;;;;21.63;13.10;;;;;;;;;;5111167;28;20020;-70
2022/01/01 15:39:12;;;;;;;26.63;14.80;;;;;;;;;;5111508;28;20020;-71